createdAt,value
2022-08-09T00:00:15.888Z,93.50
2022-08-09T00:02:49.956Z,93.70
2022-08-09T00:06:18.832Z,93.60
2022-08-09T00:08:13.025Z,93.50
2022-08-09T00:11:00.609Z,93.50
2022-08-09T00:13:33.949Z,93.50
2022-08-09T00:16:09.059Z,93.70
2022-08-09T00:18:41.236Z,93.60
2022-08-09T00:21:10.764Z,93.40
2022-08-09T00:23:55.056Z,93.30
2022-08-09T00:26:32.946Z,93.40
2022-08-09T00:29:02.741Z,93.20
2022-08-09T00:31:57.150Z,93.20
2022-08-09T00:34:19.887Z,93.30
2022-08-09T00:36:48.803Z,93.50
2022-08-09T00:40:12.917Z,93.60
2022-08-09T00:44:09.895Z,93.70
2022-08-09T00:44:56.840Z,93.80
2022-08-09T00:47:25.517Z,94.00
2022-08-09T00:49:56.490Z,94.50
2022-08-09T00:52:30.242Z,94.30
2022-08-09T00:55:00.225Z,94.40
2022-08-09T00:57:34.580Z,94.60
2022-08-09T01:00:21.347Z,94.70
2022-08-09T01:02:53.706Z,94.80
2022-08-09T01:05:53.707Z,94.70
2022-08-09T01:08:31.047Z,94.60
2022-08-09T01:11:25.029Z,94.80
2022-08-09T01:14:01.930Z,95.10
2022-08-09T01:16:36.034Z,95.00
2022-08-09T01:19:16.890Z,95.70
2022-08-09T01:22:16.476Z,95.70
2022-08-09T01:24:55.208Z,95.80
2022-08-09T01:27:27.654Z,95.60
2022-08-09T01:30:01.294Z,95.60
2022-08-09T01:32:35.219Z,96.10
2022-08-09T01:35:28.764Z,95.70
2022-08-09T01:38:07.804Z,96.30
2022-08-09T01:40:45.004Z,96.00
2022-08-09T01:43:24.250Z,96.10
2022-08-09T01:45:57.983Z,96.20
2022-08-09T01:48:31.350Z,96.30
2022-08-09T01:51:00.643Z,96.30
2022-08-09T01:53:40.910Z,96.10
2022-08-09T01:56:11.057Z,96.10
2022-08-09T01:58:43.759Z,96.30
2022-08-09T02:01:18.731Z,96.10
2022-08-09T02:03:48.500Z,96.10
2022-08-09T02:06:39.215Z,96.00
2022-08-09T02:09:15.834Z,95.90
2022-08-09T02:11:45.481Z,96.00
2022-08-09T02:14:26.578Z,96.00
2022-08-09T02:17:14.974Z,96.10
2022-08-09T02:19:45.861Z,96.30
2022-08-09T02:22:37.860Z,96.20
2022-08-09T02:25:15.310Z,96.50
2022-08-09T02:28:00.470Z,96.40
2022-08-09T02:30:41.392Z,96.50
2022-08-09T02:33:14.269Z,96.50
2022-08-09T02:36:02.805Z,96.90
2022-08-09T02:38:37.775Z,97.00
2022-08-09T02:41:10.529Z,97.20
2022-08-09T02:43:53.899Z,97.30
2022-08-09T02:46:28.751Z,97.10
2022-08-09T02:49:01.522Z,96.80
2022-08-09T02:51:40.069Z,96.90
2022-08-09T02:54:12.323Z,97.00
2022-08-09T02:56:51.328Z,97.00
2022-08-09T02:59:26.272Z,97.00
2022-08-09T03:02:09.697Z,97.00
2022-08-09T03:04:46.649Z,96.80
2022-08-09T03:07:20.540Z,96.80
2022-08-09T03:09:56.318Z,97.00
2022-08-09T03:12:27.064Z,96.70
2022-08-09T03:14:55.885Z,96.80
2022-08-09T03:17:27.176Z,97.00
2022-08-09T03:20:02.794Z,97.10
2022-08-09T03:22:41.323Z,97.10
2022-08-09T03:25:26.603Z,96.90
2022-08-09T03:28:02.082Z,96.80
2022-08-09T03:30:33.193Z,96.90
2022-08-09T03:33:12.843Z,96.90
2022-08-09T03:36:12.948Z,97.10
2022-08-09T03:38:37.327Z,97.10
2022-08-09T03:41:14.635Z,97.00
2022-08-09T03:44:03.589Z,97.30
2022-08-09T03:46:33.843Z,97.60
2022-08-09T03:49:08.023Z,97.50
2022-08-09T03:51:55.339Z,97.30
2022-08-09T03:54:32.219Z,97.50
2022-08-09T03:57:04.551Z,97.60
2022-08-09T03:59:54.629Z,97.30
2022-08-09T04:02:27.608Z,97.40
2022-08-09T04:05:01.334Z,97.30
2022-08-09T04:07:52.662Z,97.30
2022-08-09T04:10:28.917Z,97.10
2022-08-09T04:13:00.964Z,97.10
2022-08-09T04:16:17.912Z,97.20
2022-08-09T04:18:19.457Z,97.00
2022-08-09T04:20:51.826Z,97.00
2022-08-09T04:23:24.292Z,97.00
2022-08-09T04:25:53.329Z,96.80
2022-08-09T04:28:33.916Z,97.00
2022-08-09T04:31:07.980Z,96.80
2022-08-09T04:33:52.132Z,96.70
2022-08-09T04:36:25.993Z,96.70
2022-08-09T04:38:55.138Z,96.50
2022-08-09T04:41:31.959Z,96.20
2022-08-09T04:44:06.683Z,96.10
2022-08-09T04:46:59.173Z,95.90
2022-08-09T04:49:54.105Z,96.10
2022-08-09T04:52:26.400Z,95.70
2022-08-09T04:54:55.944Z,95.00
2022-08-09T04:57:25.237Z,94.50
2022-08-09T04:59:55.309Z,93.40
2022-08-09T05:02:24.975Z,91.90
2022-08-09T05:04:56.411Z,90.40
2022-08-09T05:07:27.897Z,87.40
2022-08-09T05:10:01.585Z,84.10
2022-08-09T05:12:31.309Z,80.50
2022-08-09T05:15:03.652Z,77.60
2022-08-09T05:18:55.366Z,75.20
2022-08-09T05:20:29.821Z,73.20
2022-08-09T05:23:54.378Z,72.00
2022-08-09T05:25:51.044Z,71.60
2022-08-09T05:28:20.056Z,69.40
2022-08-09T05:30:48.674Z,67.50
2022-08-09T05:33:20.101Z,64.90
2022-08-09T05:35:54.939Z,64.10
2022-08-09T05:38:27.857Z,63.40
2022-08-09T05:40:56.275Z,61.80
2022-08-09T05:43:24.695Z,61.80
2022-08-09T05:45:59.953Z,60.80
2022-08-09T05:48:33.006Z,59.10
2022-08-09T05:51:42.302Z,58.60
2022-08-09T05:53:57.242Z,58.90
2022-08-09T05:56:27.124Z,58.00
2022-08-09T05:58:58.467Z,55.70
2022-08-09T06:01:33.765Z,53.70
2022-08-09T06:04:05.607Z,52.70
2022-08-09T06:06:34.392Z,51.20
2022-08-09T06:09:10.066Z,50.30
2022-08-09T06:11:57.434Z,48.80
2022-08-09T06:14:26.433Z,46.70
2022-08-09T06:16:57.500Z,45.80
2022-08-09T06:19:27.633Z,44.00
2022-08-09T06:21:58.777Z,43.30
2022-08-09T06:24:29.097Z,43.30
2022-08-09T06:26:57.425Z,43.80
2022-08-09T06:29:26.981Z,43.30
2022-08-09T06:32:52.842Z,41.10
2022-08-09T06:34:44.255Z,40.20
2022-08-09T06:37:14.648Z,39.50
2022-08-09T06:39:58.093Z,38.70
2022-08-09T06:42:30.908Z,39.50
2022-08-09T06:45:09.234Z,39.10
2022-08-09T06:48:00.916Z,37.40
2022-08-09T06:50:31.174Z,36.90
2022-08-09T06:53:01.803Z,36.70
2022-08-09T06:55:33.200Z,33.80
2022-08-09T06:58:04.389Z,34.80
2022-08-09T07:00:50.247Z,33.60
2022-08-09T07:03:28.354Z,35.30
2022-08-09T07:06:04.389Z,36.20
2022-08-09T07:08:37.425Z,34.20
2022-08-09T07:11:12.334Z,34.10
2022-08-09T07:14:04.126Z,35.10
2022-08-09T07:16:41.750Z,32.10
2022-08-09T07:19:23.045Z,35.60
2022-08-09T07:21:57.259Z,33.10
2022-08-09T07:24:31.349Z,32.20
2022-08-09T07:27:03.565Z,33.70
2022-08-09T07:29:42.898Z,30.20
2022-08-09T07:32:11.327Z,30.00
2022-08-09T07:34:39.497Z,32.40
2022-08-09T07:37:15.560Z,32.50
2022-08-09T07:39:44.554Z,29.70
2022-08-09T07:42:16.031Z,29.50
2022-08-09T07:44:51.574Z,30.70
2022-08-09T07:47:23.462Z,31.10
2022-08-09T07:50:05.549Z,31.30
2022-08-09T07:52:38.303Z,31.80
2022-08-09T07:55:09.724Z,32.30
2022-08-09T07:57:46.484Z,32.10
2022-08-09T08:00:20.599Z,33.20
2022-08-09T08:03:08.165Z,32.40
2022-08-09T08:05:53.477Z,32.30
2022-08-09T08:09:00.594Z,31.90
2022-08-09T08:12:11.149Z,29.20
2022-08-09T08:14:04.744Z,30.10
2022-08-09T08:16:34.990Z,30.10
2022-08-09T08:19:04.483Z,29.70
2022-08-09T08:21:33.264Z,32.00
2022-08-09T08:24:12.166Z,34.00
2022-08-09T08:26:55.811Z,33.60
2022-08-09T08:29:28.154Z,32.80
2022-08-09T08:32:04.191Z,29.50
2022-08-09T08:34:36.427Z,30.00
2022-08-09T08:37:05.587Z,32.60
2022-08-09T08:39:43.446Z,29.70
2022-08-09T08:42:13.003Z,32.00
2022-08-09T08:44:43.886Z,30.30
2022-08-09T08:47:15.550Z,31.00
2022-08-09T08:49:48.148Z,33.10
2022-08-09T08:52:52.521Z,32.60
2022-08-09T08:55:08.753Z,33.90
2022-08-09T08:57:37.569Z,31.90
2022-08-09T09:00:20.826Z,31.70
2022-08-09T09:03:04.713Z,30.90
2022-08-09T09:05:58.914Z,29.50
2022-08-09T09:08:37.936Z,30.70
2022-08-09T09:11:17.344Z,32.60
2022-08-09T09:13:57.187Z,32.70
2022-08-09T09:16:32.357Z,30.20
2022-08-09T09:22:04.250Z,32.80
2022-08-09T09:24:37.768Z,34.30
2022-08-09T09:27:08.641Z,31.60
2022-08-09T09:30:12.113Z,34.00
2022-08-09T09:32:32.194Z,32.70
2022-08-09T09:35:07.576Z,35.00
2022-08-09T09:37:40.539Z,35.30
2022-08-09T09:40:11.565Z,34.40
2022-08-09T09:42:46.335Z,34.30
2022-08-09T09:45:26.683Z,36.00
2022-08-09T09:48:04.275Z,35.40
2022-08-09T09:50:51.768Z,35.40
2022-08-09T09:53:34.318Z,34.40
2022-08-09T09:56:20.134Z,36.30
2022-08-09T09:58:59.325Z,36.70
2022-08-09T10:01:36.815Z,36.10
2022-08-09T10:04:16.040Z,33.90
2022-08-09T10:06:51.627Z,36.10
2022-08-09T10:09:23.288Z,32.90
2022-08-09T10:12:12.851Z,34.30
2022-08-09T10:14:48.445Z,33.20
2022-08-09T10:17:39.853Z,32.70
2022-08-09T10:20:27.747Z,33.90
2022-08-09T10:23:14.069Z,34.30
2022-08-09T10:26:07.414Z,36.00
2022-08-09T10:28:36.248Z,37.00
2022-08-09T10:34:10.318Z,35.40
2022-08-09T10:36:45.120Z,33.40
2022-08-09T10:39:15.602Z,35.80
2022-08-09T10:41:44.516Z,32.90
2022-08-09T10:44:12.852Z,34.20
2022-08-09T10:48:13.482Z,35.10
2022-08-09T10:50:14.868Z,36.30
2022-08-09T10:53:12.845Z,35.70
2022-08-09T10:55:58.715Z,36.80
2022-08-09T10:58:33.409Z,32.80
2022-08-09T11:03:01.654Z,31.50
2022-08-09T11:04:19.893Z,31.90
2022-08-09T11:07:56.934Z,31.00
2022-08-09T11:10:18.221Z,30.30
2022-08-09T11:13:49.806Z,31.20
2022-08-09T11:16:35.239Z,32.30
2022-08-09T11:19:09.863Z,31.90
2022-08-09T11:21:57.347Z,33.40
2022-08-09T11:25:05.582Z,36.10
2022-08-09T11:28:05.115Z,34.90
2022-08-09T11:30:37.589Z,33.20
2022-08-09T11:33:15.395Z,33.00
2022-08-09T11:35:49.539Z,31.30
2022-08-09T11:38:21.998Z,30.10
2022-08-09T11:40:54.686Z,30.70
2022-08-09T11:43:43.479Z,30.90
2022-08-09T11:46:11.798Z,31.60
2022-08-09T11:48:51.139Z,30.60
2022-08-09T11:53:03.370Z,30.80
2022-08-09T11:54:27.668Z,29.70
2022-08-09T11:57:16.620Z,30.20
2022-08-09T11:59:58.324Z,30.70
2022-08-09T12:02:37.350Z,31.40
2022-08-09T12:05:17.232Z,31.10
2022-08-09T12:07:46.202Z,31.00
2022-08-09T12:10:39.513Z,30.10
2022-08-09T12:13:03.515Z,31.20
2022-08-09T12:15:52.925Z,31.20
2022-08-09T12:18:30.157Z,32.20
2022-08-09T12:21:00.629Z,31.90
2022-08-09T12:23:56.347Z,33.80
2022-08-09T12:26:26.070Z,31.50
2022-08-09T12:28:59.481Z,29.80
2022-08-09T12:32:02.162Z,28.40
2022-08-09T12:34:37.629Z,30.40
2022-08-09T12:37:23.804Z,29.80
2022-08-09T12:40:08.657Z,29.20
2022-08-09T12:42:37.513Z,28.70
2022-08-09T12:45:35.045Z,29.90
2022-08-09T12:48:00.102Z,33.60
2022-08-09T12:50:29.239Z,31.90
2022-08-09T12:53:08.891Z,28.50
2022-08-09T12:56:14.089Z,28.60
2022-08-09T12:58:33.919Z,28.30
2022-08-09T13:01:04.443Z,31.20
2022-08-09T13:03:53.688Z,30.00
2022-08-09T13:06:34.479Z,29.90
2022-08-09T13:09:11.104Z,28.90
2022-08-09T13:11:42.803Z,29.90
2022-08-09T13:14:42.413Z,30.90
2022-08-09T13:17:02.840Z,32.40
2022-08-09T13:20:08.803Z,32.90
2022-08-09T13:22:36.095Z,32.90
2022-08-09T13:25:14.980Z,31.60
2022-08-09T13:27:48.636Z,28.80
2022-08-09T13:30:51.032Z,30.00
2022-08-09T13:33:22.422Z,30.80
2022-08-09T13:36:39.026Z,30.90
2022-08-09T13:38:56.687Z,30.20
2022-08-09T13:41:59.115Z,31.90
2022-08-09T13:44:17.505Z,34.00
2022-08-09T13:47:26.990Z,35.40
2022-08-09T13:49:39.695Z,36.00
2022-08-09T13:52:25.475Z,36.30
2022-08-09T13:55:00.100Z,37.40
2022-08-09T13:57:36.829Z,37.50
2022-08-09T14:00:12.260Z,37.90
2022-08-09T14:03:17.053Z,38.10
2022-08-09T14:05:57.161Z,38.20
2022-08-09T14:08:20.759Z,37.90
2022-08-09T14:10:52.960Z,38.10
2022-08-09T14:13:27.889Z,37.90
2022-08-09T14:16:14.424Z,37.10
2022-08-09T14:18:45.826Z,36.30
2022-08-09T14:21:20.498Z,37.60
2022-08-09T14:23:55.248Z,36.50
2022-08-09T14:26:32.825Z,37.00
2022-08-09T14:29:07.511Z,38.10
2022-08-09T14:31:52.002Z,38.50
2022-08-09T14:34:31.263Z,39.60
2022-08-09T14:37:06.855Z,38.30
2022-08-09T14:39:46.575Z,38.70
2022-08-09T14:42:30.530Z,38.10
2022-08-09T14:46:51.213Z,39.30
2022-08-09T14:47:58.144Z,39.40
2022-08-09T14:50:29.059Z,40.90
2022-08-09T14:52:57.798Z,40.70
2022-08-09T14:55:31.970Z,41.70
2022-08-09T14:58:02.821Z,42.80
2022-08-09T15:00:32.246Z,41.90
2022-08-09T15:03:02.165Z,41.50
2022-08-09T15:05:32.163Z,40.90
2022-08-09T15:08:00.443Z,41.30
2022-08-09T15:10:31.801Z,41.50
2022-08-09T15:13:03.187Z,42.50
2022-08-09T15:15:34.463Z,38.20
2022-08-09T15:18:08.312Z,36.40
2022-08-09T15:21:55.261Z,37.50
2022-08-09T15:24:02.620Z,36.60
2022-08-09T15:26:31.450Z,37.40
2022-08-09T15:29:02.421Z,39.60
2022-08-09T15:31:40.921Z,37.70
2022-08-09T15:34:18.102Z,38.20
2022-08-09T15:37:01.148Z,39.00
2022-08-09T15:39:34.670Z,39.80
2022-08-09T15:42:19.677Z,40.60
2022-08-09T15:44:50.101Z,40.60
2022-08-09T15:47:22.551Z,41.40
2022-08-09T15:50:04.655Z,42.90
2022-08-09T15:52:34.070Z,43.10
2022-08-09T15:55:02.503Z,41.90
2022-08-09T15:57:35.733Z,41.60
2022-08-09T16:00:24.309Z,41.50
2022-08-09T16:02:56.518Z,39.70
2022-08-09T16:05:47.488Z,40.30
2022-08-09T16:08:30.695Z,38.50
2022-08-09T16:11:01.382Z,36.40
2022-08-09T16:14:04.765Z,35.80
2022-08-09T16:16:19.894Z,35.10
2022-08-09T16:18:48.138Z,33.30
2022-08-09T16:21:25.611Z,32.50
2022-08-09T16:23:58.323Z,33.50
2022-08-09T16:26:34.669Z,34.90
2022-08-09T16:29:11.465Z,36.40
2022-08-09T16:32:20.131Z,37.00
2022-08-09T16:34:56.182Z,36.90
2022-08-09T16:37:20.314Z,37.80
2022-08-09T16:40:09.935Z,37.20
2022-08-09T16:42:39.154Z,38.20
2022-08-09T16:45:18.644Z,37.50
2022-08-09T16:48:40.999Z,38.10
2022-08-09T16:50:38.455Z,37.80
2022-08-09T16:53:09.055Z,37.90
2022-08-09T16:55:59.774Z,37.80
2022-08-09T16:58:28.223Z,38.60
2022-08-09T17:01:05.665Z,38.50
2022-08-09T17:03:34.812Z,39.40
2022-08-09T17:06:28.208Z,40.20
2022-08-09T17:09:02.840Z,39.70
2022-08-09T17:11:40.676Z,39.90
2022-08-09T17:14:26.080Z,40.70
2022-08-09T17:16:59.689Z,41.60
2022-08-09T17:19:47.212Z,42.60
2022-08-09T17:22:24.716Z,44.30
2022-08-09T17:25:03.801Z,45.30
2022-08-09T17:27:33.775Z,45.20
2022-08-09T17:30:04.669Z,45.90
2022-08-09T17:32:38.591Z,47.20
2022-08-09T17:35:12.305Z,48.50
2022-08-09T17:38:02.349Z,49.30
2022-08-09T17:40:30.354Z,49.50
2022-08-09T17:43:10.796Z,50.00
2022-08-09T17:46:02.743Z,50.50
2022-08-09T17:48:38.610Z,50.90
2022-08-09T17:51:17.507Z,51.40
2022-08-09T17:53:53.281Z,52.40
2022-08-09T17:56:27.483Z,53.00
2022-08-09T17:58:58.287Z,53.60
2022-08-09T18:02:03.717Z,54.50
2022-08-09T18:04:16.204Z,55.40
2022-08-09T18:06:54.435Z,56.70
2022-08-09T18:09:25.368Z,57.70
2022-08-09T18:12:17.361Z,55.40
2022-08-09T18:14:53.815Z,57.30
2022-08-09T18:17:27.146Z,58.00
2022-08-09T18:20:56.018Z,58.50
2022-08-09T18:23:05.166Z,59.30
2022-08-09T18:25:51.105Z,60.10
2022-08-09T18:30:34.486Z,60.00
2022-08-09T18:31:10.829Z,61.70
2022-08-09T18:33:39.999Z,60.40
2022-08-09T18:36:25.424Z,60.80
2022-08-09T18:39:00.883Z,62.10
2022-08-09T18:41:34.200Z,62.80
2022-08-09T18:44:07.979Z,64.40
2022-08-09T18:46:51.158Z,65.30
2022-08-09T18:49:32.370Z,66.10
2022-08-09T18:52:11.793Z,67.20
2022-08-09T18:54:49.731Z,67.80
2022-08-09T18:57:22.907Z,67.50
2022-08-09T18:59:57.465Z,68.20
2022-08-09T19:02:32.251Z,68.60
2022-08-09T19:05:03.873Z,69.20
2022-08-09T19:08:03.967Z,69.90
2022-08-09T19:10:37.228Z,69.90
2022-08-09T19:13:20.902Z,71.00
2022-08-09T19:15:52.811Z,72.10
2022-08-09T19:18:37.420Z,72.90
2022-08-09T19:21:10.590Z,73.70
2022-08-09T19:24:32.096Z,74.50
2022-08-09T19:26:35.185Z,75.40
2022-08-09T19:29:15.216Z,75.60
2022-08-09T19:31:51.168Z,76.80
2022-08-09T19:34:22.651Z,77.70
2022-08-09T19:36:52.711Z,77.70
2022-08-09T19:39:43.539Z,78.10
2022-08-09T19:42:14.616Z,78.40
2022-08-09T19:44:43.822Z,79.20
2022-08-09T19:47:23.402Z,79.30
2022-08-09T19:50:10.247Z,79.00
2022-08-09T19:52:51.312Z,79.10
2022-08-09T19:55:31.124Z,80.00
2022-08-09T19:58:16.307Z,79.20
2022-08-09T20:00:46.739Z,78.70
2022-08-09T20:04:10.891Z,79.20
2022-08-09T20:06:22.434Z,79.10
2022-08-09T20:08:51.230Z,79.90
2022-08-09T20:11:21.473Z,80.40
2022-08-09T20:13:54.835Z,80.70
2022-08-09T20:16:34.502Z,80.90
2022-08-09T20:19:48.964Z,81.50
2022-08-09T20:21:59.849Z,81.70
2022-08-09T20:24:33.475Z,81.70
2022-08-09T20:27:08.040Z,82.20
2022-08-09T20:29:38.636Z,81.90
2022-08-09T20:32:30.185Z,83.10
2022-08-09T20:34:56.496Z,83.30
2022-08-09T20:37:25.010Z,83.30
2022-08-09T20:40:18.047Z,83.90
2022-08-09T20:42:46.588Z,84.30
2022-08-09T20:46:01.865Z,84.50
2022-08-09T20:48:21.374Z,84.90
2022-08-09T20:50:55.682Z,85.60
2022-08-09T20:53:37.382Z,85.90
2022-08-09T20:56:19.946Z,86.10
2022-08-09T20:58:58.216Z,86.40
2022-08-09T21:01:35.443Z,86.50
2022-08-09T21:05:54.481Z,86.40
2022-08-09T21:07:11.735Z,86.90
2022-08-09T21:09:45.971Z,86.80
2022-08-09T21:15:15.176Z,87.00
2022-08-09T21:18:21.741Z,87.40
2022-08-09T21:20:32.209Z,87.50
2022-08-09T21:23:00.947Z,87.80
2022-08-09T21:25:55.744Z,87.50
2022-08-09T21:28:34.599Z,87.90
2022-08-09T21:31:16.212Z,87.00
2022-08-09T21:33:50.649Z,87.30
2022-08-09T21:36:23.423Z,87.70
2022-08-09T21:38:57.324Z,88.30
2022-08-09T21:42:04.787Z,88.70
2022-08-09T21:44:33.111Z,89.20
2022-08-09T21:47:05.857Z,89.20
2022-08-09T21:49:39.412Z,90.10
2022-08-09T21:52:14.690Z,90.70
2022-08-09T21:54:50.776Z,90.70
2022-08-09T21:57:39.262Z,90.60
2022-08-09T22:00:16.961Z,90.50
2022-08-09T22:02:51.109Z,90.50
2022-08-09T22:05:35.583Z,90.70
2022-08-09T22:08:13.951Z,90.90
2022-08-09T22:11:48.953Z,91.00
2022-08-09T22:13:35.254Z,91.10
2022-08-09T22:16:07.732Z,91.00
2022-08-09T22:18:53.215Z,91.00
2022-08-09T22:21:24.500Z,91.10
2022-08-09T22:24:01.121Z,91.50
2022-08-09T22:26:35.323Z,91.30
2022-08-09T22:29:09.117Z,91.70
2022-08-09T22:31:53.155Z,91.90
2022-08-09T22:34:27.142Z,91.80
2022-08-09T22:36:55.867Z,91.80
2022-08-09T22:39:55.707Z,91.80
2022-08-09T22:42:22.088Z,91.80
2022-08-09T22:45:00.548Z,91.90
2022-08-09T22:48:29.697Z,92.10
2022-08-09T22:50:31.500Z,92.00
2022-08-09T22:53:03.905Z,91.80
2022-08-09T22:56:05.926Z,91.90
2022-08-09T22:58:32.413Z,91.70
2022-08-09T23:01:03.107Z,91.80
2022-08-09T23:04:04.778Z,92.00
2022-08-09T23:06:35.229Z,92.30
2022-08-09T23:09:05.647Z,92.50
2022-08-09T23:11:34.022Z,92.70
2022-08-09T23:14:03.302Z,92.70
2022-08-09T23:16:32.352Z,92.60
2022-08-09T23:19:00.540Z,92.70
2022-08-09T23:21:34.626Z,93.00
2022-08-09T23:24:07.505Z,93.10
2022-08-09T23:26:36.247Z,93.10
2022-08-09T23:29:05.476Z,93.40
2022-08-09T23:31:33.771Z,93.50
2022-08-09T23:34:03.704Z,93.40
2022-08-09T23:36:34.162Z,93.70
2022-08-09T23:39:03.422Z,93.50
2022-08-09T23:41:31.671Z,93.70
2022-08-09T23:44:01.112Z,93.70
2022-08-09T23:46:29.712Z,93.70
2022-08-09T23:48:58.170Z,93.90
2022-08-09T23:51:27.117Z,94.30
2022-08-09T23:54:02.262Z,94.60
2022-08-09T23:56:53.691Z,94.30
2022-08-09T23:59:20.679Z,93.80
